sensor_id;sensor_type;location;lat;lon;timestamp;P1;durP1;ratioP1;P2;durP2;ratioP2
35324;SDS011;35135;47.510;19.036;2022-10-26T00:01:17;3.78;;;1.95;;
35324;SDS011;35135;47.510;19.036;2022-10-26T00:03:43;3.03;;;1.90;;
35324;SDS011;35135;47.510;19.036;2022-10-26T00:08:40;3.72;;;2.13;;
35324;SDS011;35135;47.510;19.036;2022-10-26T00:11:06;2.25;;;1.70;;
35324;SDS011;35135;47.510;19.036;2022-10-26T00:13:32;2.40;;;1.80;;
35324;SDS011;35135;47.510;19.036;2022-10-26T00:15:59;3.45;;;1.80;;
35324;SDS011;35135;47.510;19.036;2022-10-26T00:18:25;3.53;;;1.90;;
35324;SDS011;35135;47.510;19.036;2022-10-26T00:20:51;2.47;;;1.83;;
35324;SDS011;35135;47.510;19.036;2022-10-26T00:23:17;2.33;;;1.48;;
35324;SDS011;35135;47.510;19.036;2022-10-26T00:25:43;4.60;;;1.65;;
35324;SDS011;35135;47.510;19.036;2022-10-26T00:28:08;3.13;;;1.80;;
35324;SDS011;35135;47.510;19.036;2022-10-26T00:30:37;2.35;;;1.60;;
35324;SDS011;35135;47.510;19.036;2022-10-26T00:33:04;2.67;;;1.75;;
35324;SDS011;35135;47.510;19.036;2022-10-26T00:35:29;2.00;;;1.33;;
35324;SDS011;35135;47.510;19.036;2022-10-26T00:37:55;2.75;;;1.60;;
35324;SDS011;35135;47.510;19.036;2022-10-26T00:40:21;2.72;;;1.45;;
35324;SDS011;35135;47.510;19.036;2022-10-26T00:42:46;2.60;;;2.05;;
35324;SDS011;35135;47.510;19.036;2022-10-26T00:45:19;2.40;;;1.60;;
35324;SDS011;35135;47.510;19.036;2022-10-26T00:48:13;4.38;;;1.60;;
35324;SDS011;35135;47.510;19.036;2022-10-26T00:50:58;2.92;;;1.80;;
35324;SDS011;35135;47.510;19.036;2022-10-26T00:53:26;2.00;;;1.40;;
35324;SDS011;35135;47.510;19.036;2022-10-26T00:55:54;2.25;;;1.63;;
35324;SDS011;35135;47.510;19.036;2022-10-26T00:58:20;3.42;;;1.70;;
35324;SDS011;35135;47.510;19.036;2022-10-26T01:00:48;2.72;;;1.55;;
35324;SDS011;35135;47.510;19.036;2022-10-26T01:03:14;1.95;;;1.30;;
35324;SDS011;35135;47.510;19.036;2022-10-26T01:05:41;2.55;;;1.52;;
35324;SDS011;35135;47.510;19.036;2022-10-26T01:08:09;2.88;;;1.50;;
35324;SDS011;35135;47.510;19.036;2022-10-26T01:10:37;2.10;;;1.38;;
35324;SDS011;35135;47.510;19.036;2022-10-26T01:13:04;2.15;;;1.50;;
35324;SDS011;35135;47.510;19.036;2022-10-26T01:15:34;2.20;;;1.35;;
35324;SDS011;35135;47.510;19.036;2022-10-26T01:23:30;2.33;;;1.40;;
35324;SDS011;35135;47.510;19.036;2022-10-26T01:29:36;2.72;;;1.40;;
35324;SDS011;35135;47.510;19.036;2022-10-26T01:32:11;2.00;;;1.42;;
35324;SDS011;35135;47.510;19.036;2022-10-26T01:34:43;2.88;;;1.50;;
35324;SDS011;35135;47.510;19.036;2022-10-26T01:37:21;1.73;;;1.40;;
35324;SDS011;35135;47.510;19.036;2022-10-26T01:39:52;1.42;;;1.30;;
35324;SDS011;35135;47.510;19.036;2022-10-26T01:42:20;2.25;;;1.45;;
35324;SDS011;35135;47.510;19.036;2022-10-26T01:44:56;1.98;;;1.08;;
35324;SDS011;35135;47.510;19.036;2022-10-26T01:47:25;2.00;;;1.30;;
35324;SDS011;35135;47.510;19.036;2022-10-26T01:49:54;2.45;;;1.55;;
35324;SDS011;35135;47.510;19.036;2022-10-26T01:52:22;2.00;;;1.58;;
35324;SDS011;35135;47.510;19.036;2022-10-26T01:54:48;1.40;;;1.10;;
35324;SDS011;35135;47.510;19.036;2022-10-26T01:57:15;2.72;;;1.48;;
35324;SDS011;35135;47.510;19.036;2022-10-26T02:07:58;1.60;;;1.00;;
35324;SDS011;35135;47.510;19.036;2022-10-26T02:13:46;1.83;;;1.42;;
35324;SDS011;35135;47.510;19.036;2022-10-26T02:19:09;1.77;;;1.20;;
35324;SDS011;35135;47.510;19.036;2022-10-26T02:21:39;2.13;;;1.05;;
35324;SDS011;35135;47.510;19.036;2022-10-26T02:24:09;1.58;;;1.23;;
35324;SDS011;35135;47.510;19.036;2022-10-26T02:26:37;1.55;;;1.17;;
35324;SDS011;35135;47.510;19.036;2022-10-26T02:29:05;1.52;;;1.20;;
35324;SDS011;35135;47.510;19.036;2022-10-26T02:31:33;1.67;;;1.20;;
35324;SDS011;35135;47.510;19.036;2022-10-26T02:34:02;2.83;;;1.30;;
35324;SDS011;35135;47.510;19.036;2022-10-26T02:36:32;1.40;;;1.10;;
35324;SDS011;35135;47.510;19.036;2022-10-26T02:39:02;2.10;;;1.35;;
35324;SDS011;35135;47.510;19.036;2022-10-26T02:41:30;2.00;;;1.35;;
35324;SDS011;35135;47.510;19.036;2022-10-26T02:44:09;2.20;;;1.48;;
35324;SDS011;35135;47.510;19.036;2022-10-26T02:46:48;2.88;;;1.20;;
35324;SDS011;35135;47.510;19.036;2022-10-26T02:49:15;3.00;;;1.20;;
35324;SDS011;35135;47.510;19.036;2022-10-26T02:51:49;2.05;;;1.38;;
35324;SDS011;35135;47.510;19.036;2022-10-26T02:57:28;2.22;;;1.30;;
35324;SDS011;35135;47.510;19.036;2022-10-26T03:00:08;1.58;;;1.00;;
35324;SDS011;35135;47.510;19.036;2022-10-26T03:02:35;2.13;;;1.20;;
35324;SDS011;35135;47.510;19.036;2022-10-26T03:05:05;1.70;;;1.10;;
35324;SDS011;35135;47.510;19.036;2022-10-26T03:07:43;1.35;;;0.98;;
35324;SDS011;35135;47.510;19.036;2022-10-26T03:10:09;1.63;;;1.10;;
35324;SDS011;35135;47.510;19.036;2022-10-26T03:12:35;2.15;;;1.35;;
35324;SDS011;35135;47.510;19.036;2022-10-26T03:15:01;1.25;;;0.98;;
35324;SDS011;35135;47.510;19.036;2022-10-26T03:17:27;1.58;;;1.05;;
35324;SDS011;35135;47.510;19.036;2022-10-26T03:19:53;2.42;;;1.20;;
35324;SDS011;35135;47.510;19.036;2022-10-26T03:22:20;1.48;;;1.20;;
35324;SDS011;35135;47.510;19.036;2022-10-26T03:24:45;1.25;;;1.00;;
35324;SDS011;35135;47.510;19.036;2022-10-26T03:27:11;2.83;;;1.10;;
35324;SDS011;35135;47.510;19.036;2022-10-26T03:29:37;1.20;;;1.00;;
35324;SDS011;35135;47.510;19.036;2022-10-26T03:32:03;1.63;;;1.00;;
35324;SDS011;35135;47.510;19.036;2022-10-26T03:34:29;1.58;;;1.02;;
35324;SDS011;35135;47.510;19.036;2022-10-26T03:36:54;1.90;;;1.20;;
35324;SDS011;35135;47.510;19.036;2022-10-26T03:39:20;1.67;;;1.08;;
35324;SDS011;35135;47.510;19.036;2022-10-26T03:41:46;1.73;;;1.20;;
35324;SDS011;35135;47.510;19.036;2022-10-26T03:44:12;1.40;;;1.02;;
35324;SDS011;35135;47.510;19.036;2022-10-26T03:46:37;1.90;;;1.13;;
35324;SDS011;35135;47.510;19.036;2022-10-26T03:49:03;1.77;;;1.20;;
35324;SDS011;35135;47.510;19.036;2022-10-26T03:51:29;1.67;;;1.10;;
35324;SDS011;35135;47.510;19.036;2022-10-26T03:53:55;1.50;;;0.90;;
35324;SDS011;35135;47.510;19.036;2022-10-26T03:56:20;1.40;;;1.10;;
35324;SDS011;35135;47.510;19.036;2022-10-26T03:58:46;1.40;;;0.98;;
35324;SDS011;35135;47.510;19.036;2022-10-26T04:01:11;1.10;;;0.90;;
35324;SDS011;35135;47.510;19.036;2022-10-26T04:03:37;1.33;;;0.90;;
35324;SDS011;35135;47.510;19.036;2022-10-26T04:06:03;1.50;;;1.08;;
35324;SDS011;35135;47.510;19.036;2022-10-26T04:08:29;1.60;;;1.10;;
35324;SDS011;35135;47.510;19.036;2022-10-26T04:10:54;1.40;;;1.17;;
35324;SDS011;35135;47.510;19.036;2022-10-26T04:13:20;2.10;;;1.27;;
35324;SDS011;35135;47.510;19.036;2022-10-26T04:15:46;1.38;;;1.02;;
35324;SDS011;35135;47.510;19.036;2022-10-26T04:18:11;1.45;;;1.10;;
35324;SDS011;35135;47.510;19.036;2022-10-26T04:20:37;2.75;;;1.13;;
35324;SDS011;35135;47.510;19.036;2022-10-26T04:23:05;2.35;;;0.90;;
35324;SDS011;35135;47.510;19.036;2022-10-26T04:25:33;1.52;;;1.00;;
35324;SDS011;35135;47.510;19.036;2022-10-26T04:27:59;1.20;;;1.00;;
35324;SDS011;35135;47.510;19.036;2022-10-26T04:30:26;1.13;;;0.98;;
35324;SDS011;35135;47.510;19.036;2022-10-26T04:32:52;1.45;;;1.05;;
35324;SDS011;35135;47.510;19.036;2022-10-26T04:35:17;1.25;;;0.90;;
35324;SDS011;35135;47.510;19.036;2022-10-26T04:37:43;1.63;;;1.00;;
35324;SDS011;35135;47.510;19.036;2022-10-26T04:40:09;1.80;;;0.98;;
35324;SDS011;35135;47.510;19.036;2022-10-26T04:45:10;2.17;;;1.05;;
35324;SDS011;35135;47.510;19.036;2022-10-26T04:47:37;1.50;;;1.10;;
35324;SDS011;35135;47.510;19.036;2022-10-26T04:50:03;1.40;;;1.20;;
35324;SDS011;35135;47.510;19.036;2022-10-26T04:52:30;2.05;;;1.20;;
35324;SDS011;35135;47.510;19.036;2022-10-26T04:54:56;1.00;;;0.90;;
35324;SDS011;35135;47.510;19.036;2022-10-26T04:57:21;1.63;;;1.10;;
35324;SDS011;35135;47.510;19.036;2022-10-26T04:59:47;1.27;;;1.00;;
35324;SDS011;35135;47.510;19.036;2022-10-26T05:02:13;2.67;;;0.98;;
35324;SDS011;35135;47.510;19.036;2022-10-26T05:04:38;2.05;;;1.00;;
35324;SDS011;35135;47.510;19.036;2022-10-26T05:07:04;1.50;;;0.85;;
35324;SDS011;35135;47.510;19.036;2022-10-26T05:09:30;2.17;;;1.00;;
35324;SDS011;35135;47.510;19.036;2022-10-26T05:11:55;1.45;;;1.10;;
35324;SDS011;35135;47.510;19.036;2022-10-26T05:27:08;2.00;;;1.42;;
35324;SDS011;35135;47.510;19.036;2022-10-26T05:29:34;1.60;;;1.30;;
35324;SDS011;35135;47.510;19.036;2022-10-26T05:31:59;2.97;;;1.30;;
35324;SDS011;35135;47.510;19.036;2022-10-26T05:34:25;7.15;;;1.52;;
35324;SDS011;35135;47.510;19.036;2022-10-26T05:36:51;2.40;;;1.48;;
35324;SDS011;35135;47.510;19.036;2022-10-26T05:39:18;3.28;;;1.30;;
35324;SDS011;35135;47.510;19.036;2022-10-26T05:41:43;4.25;;;1.33;;
35324;SDS011;35135;47.510;19.036;2022-10-26T05:44:09;3.42;;;1.33;;
35324;SDS011;35135;47.510;19.036;2022-10-26T05:46:35;3.38;;;1.45;;
35324;SDS011;35135;47.510;19.036;2022-10-26T05:49:00;3.47;;;1.38;;
35324;SDS011;35135;47.510;19.036;2022-10-26T05:51:26;4.05;;;1.27;;
35324;SDS011;35135;47.510;19.036;2022-10-26T05:53:51;6.53;;;1.50;;
35324;SDS011;35135;47.510;19.036;2022-10-26T05:56:19;2.55;;;1.33;;
35324;SDS011;35135;47.510;19.036;2022-10-26T05:58:55;4.45;;;1.63;;
35324;SDS011;35135;47.510;19.036;2022-10-26T06:01:24;3.35;;;1.40;;
35324;SDS011;35135;47.510;19.036;2022-10-26T06:06:21;5.05;;;1.50;;
35324;SDS011;35135;47.510;19.036;2022-10-26T06:08:47;4.25;;;1.33;;
35324;SDS011;35135;47.510;19.036;2022-10-26T06:11:13;2.85;;;1.30;;
35324;SDS011;35135;47.510;19.036;2022-10-26T06:13:39;5.28;;;1.80;;
35324;SDS011;35135;47.510;19.036;2022-10-26T06:16:23;8.35;;;2.13;;
35324;SDS011;35135;47.510;19.036;2022-10-26T06:24:44;6.22;;;2.13;;
35324;SDS011;35135;47.510;19.036;2022-10-26T06:27:25;3.95;;;2.00;;
35324;SDS011;35135;47.510;19.036;2022-10-26T06:30:10;6.40;;;1.73;;
35324;SDS011;35135;47.510;19.036;2022-10-26T06:32:39;7.00;;;1.98;;
35324;SDS011;35135;47.510;19.036;2022-10-26T06:37:37;6.47;;;1.83;;
35324;SDS011;35135;47.510;19.036;2022-10-26T06:40:03;8.73;;;2.75;;
35324;SDS011;35135;47.510;19.036;2022-10-26T06:42:30;6.22;;;3.10;;
35324;SDS011;35135;47.510;19.036;2022-10-26T06:44:56;9.73;;;3.20;;
35324;SDS011;35135;47.510;19.036;2022-10-26T06:47:26;5.03;;;3.00;;
35324;SDS011;35135;47.510;19.036;2022-10-26T06:52:36;5.47;;;2.80;;
35324;SDS011;35135;47.510;19.036;2022-10-26T06:55:11;5.65;;;2.50;;
35324;SDS011;35135;47.510;19.036;2022-10-26T06:57:38;12.80;;;2.83;;
35324;SDS011;35135;47.510;19.036;2022-10-26T07:02:39;6.05;;;2.97;;
35324;SDS011;35135;47.510;19.036;2022-10-26T07:05:04;5.90;;;3.00;;
35324;SDS011;35135;47.510;19.036;2022-10-26T07:07:34;6.78;;;3.25;;
35324;SDS011;35135;47.510;19.036;2022-10-26T07:10:04;6.63;;;2.92;;
35324;SDS011;35135;47.510;19.036;2022-10-26T07:12:31;6.80;;;2.90;;
35324;SDS011;35135;47.510;19.036;2022-10-26T07:14:56;5.65;;;3.10;;
35324;SDS011;35135;47.510;19.036;2022-10-26T07:17:22;7.13;;;2.70;;
35324;SDS011;35135;47.510;19.036;2022-10-26T07:19:48;7.90;;;3.00;;
35324;SDS011;35135;47.510;19.036;2022-10-26T07:22:13;7.97;;;2.78;;
35324;SDS011;35135;47.510;19.036;2022-10-26T07:24:39;7.72;;;2.78;;
35324;SDS011;35135;47.510;19.036;2022-10-26T07:27:05;8.00;;;3.38;;
35324;SDS011;35135;47.510;19.036;2022-10-26T07:29:30;6.68;;;2.83;;
35324;SDS011;35135;47.510;19.036;2022-10-26T07:31:56;5.35;;;3.13;;
35324;SDS011;35135;47.510;19.036;2022-10-26T07:34:22;6.63;;;3.88;;
35324;SDS011;35135;47.510;19.036;2022-10-26T07:36:47;10.98;;;3.50;;
35324;SDS011;35135;47.510;19.036;2022-10-26T07:39:14;6.78;;;3.20;;
35324;SDS011;35135;47.510;19.036;2022-10-26T07:41:40;10.38;;;3.83;;
35324;SDS011;35135;47.510;19.036;2022-10-26T07:44:06;6.22;;;3.35;;
35324;SDS011;35135;47.510;19.036;2022-10-26T07:46:31;4.75;;;2.85;;
35324;SDS011;35135;47.510;19.036;2022-10-26T07:48:57;6.40;;;3.10;;
35324;SDS011;35135;47.510;19.036;2022-10-26T07:51:23;6.00;;;3.13;;
35324;SDS011;35135;47.510;19.036;2022-10-26T07:53:48;8.15;;;3.80;;
35324;SDS011;35135;47.510;19.036;2022-10-26T07:56:14;8.85;;;3.40;;
35324;SDS011;35135;47.510;19.036;2022-10-26T07:58:40;6.20;;;3.03;;
35324;SDS011;35135;47.510;19.036;2022-10-26T08:01:06;6.72;;;3.25;;
35324;SDS011;35135;47.510;19.036;2022-10-26T08:03:33;5.75;;;2.78;;
35324;SDS011;35135;47.510;19.036;2022-10-26T08:05:59;4.05;;;2.80;;
35324;SDS011;35135;47.510;19.036;2022-10-26T08:08:25;5.35;;;3.03;;
35324;SDS011;35135;47.510;19.036;2022-10-26T08:10:51;6.40;;;3.35;;
35324;SDS011;35135;47.510;19.036;2022-10-26T08:13:17;5.93;;;3.10;;
35324;SDS011;35135;47.510;19.036;2022-10-26T08:15:42;6.72;;;3.15;;
35324;SDS011;35135;47.510;19.036;2022-10-26T08:18:08;4.82;;;2.78;;
35324;SDS011;35135;47.510;19.036;2022-10-26T08:20:33;6.88;;;3.50;;
35324;SDS011;35135;47.510;19.036;2022-10-26T08:22:59;6.28;;;3.25;;
35324;SDS011;35135;47.510;19.036;2022-10-26T08:25:25;5.88;;;2.90;;
35324;SDS011;35135;47.510;19.036;2022-10-26T08:27:51;5.95;;;3.35;;
35324;SDS011;35135;47.510;19.036;2022-10-26T08:30:18;5.15;;;3.10;;
35324;SDS011;35135;47.510;19.036;2022-10-26T08:32:43;5.47;;;2.80;;
35324;SDS011;35135;47.510;19.036;2022-10-26T08:35:09;3.90;;;2.75;;
35324;SDS011;35135;47.510;19.036;2022-10-26T08:37:35;6.82;;;3.10;;
35324;SDS011;35135;47.510;19.036;2022-10-26T08:40:02;6.53;;;2.92;;
35324;SDS011;35135;47.510;19.036;2022-10-26T08:44:58;6.18;;;2.95;;
35324;SDS011;35135;47.510;19.036;2022-10-26T08:50:12;3.38;;;2.72;;
35324;SDS011;35135;47.510;19.036;2022-10-26T08:52:50;4.57;;;3.13;;
35324;SDS011;35135;47.510;19.036;2022-10-26T08:55:26;5.30;;;2.72;;
35324;SDS011;35135;47.510;19.036;2022-10-26T08:57:57;4.20;;;2.58;;
35324;SDS011;35135;47.510;19.036;2022-10-26T09:00:26;4.47;;;3.00;;
35324;SDS011;35135;47.510;19.036;2022-10-26T09:02:54;5.10;;;3.50;;
35324;SDS011;35135;47.510;19.036;2022-10-26T09:05:21;6.25;;;2.90;;
35324;SDS011;35135;47.510;19.036;2022-10-26T09:10:39;4.75;;;3.03;;
35324;SDS011;35135;47.510;19.036;2022-10-26T09:24:31;5.75;;;3.80;;
35324;SDS011;35135;47.510;19.036;2022-10-26T09:29:34;4.38;;;3.33;;
35324;SDS011;35135;47.510;19.036;2022-10-26T09:32:04;5.82;;;3.58;;
35324;SDS011;35135;47.510;19.036;2022-10-26T09:34:45;5.15;;;3.42;;
35324;SDS011;35135;47.510;19.036;2022-10-26T09:37:27;5.82;;;3.50;;
35324;SDS011;35135;47.510;19.036;2022-10-26T09:40:04;4.10;;;3.13;;
35324;SDS011;35135;47.510;19.036;2022-10-26T09:45:29;5.55;;;3.38;;
35324;SDS011;35135;47.510;19.036;2022-10-26T09:48:13;5.03;;;3.28;;
35324;SDS011;35135;47.510;19.036;2022-10-26T09:50:57;4.43;;;3.20;;
35324;SDS011;35135;47.510;19.036;2022-10-26T09:53:24;3.90;;;3.35;;
35324;SDS011;35135;47.510;19.036;2022-10-26T09:55:53;4.65;;;3.50;;
35324;SDS011;35135;47.510;19.036;2022-10-26T09:58:51;5.13;;;3.83;;
35324;SDS011;35135;47.510;19.036;2022-10-26T10:06:41;4.32;;;3.50;;
35324;SDS011;35135;47.510;19.036;2022-10-26T10:11:45;5.70;;;3.70;;
35324;SDS011;35135;47.510;19.036;2022-10-26T10:14:20;5.82;;;3.60;;
35324;SDS011;35135;47.510;19.036;2022-10-26T10:16:48;4.13;;;3.00;;
35324;SDS011;35135;47.510;19.036;2022-10-26T10:19:22;5.68;;;3.72;;
35324;SDS011;35135;47.510;19.036;2022-10-26T10:21:50;4.30;;;3.20;;
35324;SDS011;35135;47.510;19.036;2022-10-26T10:24:32;5.40;;;3.67;;
35324;SDS011;35135;47.510;19.036;2022-10-26T10:27:14;4.70;;;3.75;;
35324;SDS011;35135;47.510;19.036;2022-10-26T10:29:42;3.90;;;3.30;;
35324;SDS011;35135;47.510;19.036;2022-10-26T10:32:17;4.95;;;3.20;;
35324;SDS011;35135;47.510;19.036;2022-10-26T10:34:45;4.50;;;3.53;;
35324;SDS011;35135;47.510;19.036;2022-10-26T10:37:18;4.80;;;3.45;;
35324;SDS011;35135;47.510;19.036;2022-10-26T10:40:01;5.68;;;3.28;;
35324;SDS011;35135;47.510;19.036;2022-10-26T10:42:34;4.93;;;3.28;;
35324;SDS011;35135;47.510;19.036;2022-10-26T10:45:03;4.38;;;3.58;;
35324;SDS011;35135;47.510;19.036;2022-10-26T10:47:31;5.53;;;3.60;;
35324;SDS011;35135;47.510;19.036;2022-10-26T10:50:14;4.90;;;3.35;;
35324;SDS011;35135;47.510;19.036;2022-10-26T10:52:43;5.25;;;3.47;;
35324;SDS011;35135;47.510;19.036;2022-10-26T10:55:19;4.95;;;3.40;;
35324;SDS011;35135;47.510;19.036;2022-10-26T11:00:34;5.13;;;3.63;;
35324;SDS011;35135;47.510;19.036;2022-10-26T11:03:14;6.05;;;3.38;;
35324;SDS011;35135;47.510;19.036;2022-10-26T11:08:35;3.95;;;3.47;;
35324;SDS011;35135;47.510;19.036;2022-10-26T11:11:43;4.47;;;3.85;;
35324;SDS011;35135;47.510;19.036;2022-10-26T11:14:17;3.60;;;3.13;;
35324;SDS011;35135;47.510;19.036;2022-10-26T11:16:54;4.28;;;3.42;;
35324;SDS011;35135;47.510;19.036;2022-10-26T11:19:47;3.67;;;3.30;;
35324;SDS011;35135;47.510;19.036;2022-10-26T11:22:21;3.85;;;3.03;;
35324;SDS011;35135;47.510;19.036;2022-10-26T11:24:55;4.43;;;3.20;;
35324;SDS011;35135;47.510;19.036;2022-10-26T11:27:32;4.40;;;3.47;;
35324;SDS011;35135;47.510;19.036;2022-10-26T11:32:55;4.00;;;3.60;;
35324;SDS011;35135;47.510;19.036;2022-10-26T11:38:25;3.25;;;2.85;;
35324;SDS011;35135;47.510;19.036;2022-10-26T11:41:21;3.95;;;2.83;;
35324;SDS011;35135;47.510;19.036;2022-10-26T11:44:04;4.65;;;3.53;;
35324;SDS011;35135;47.510;19.036;2022-10-26T11:46:45;5.30;;;3.35;;
35324;SDS011;35135;47.510;19.036;2022-10-26T11:49:20;4.45;;;3.45;;
35324;SDS011;35135;47.510;19.036;2022-10-26T11:52:07;4.05;;;3.65;;
35324;SDS011;35135;47.510;19.036;2022-10-26T11:54:50;3.67;;;3.17;;
35324;SDS011;35135;47.510;19.036;2022-10-26T11:57:24;3.70;;;3.20;;
35324;SDS011;35135;47.510;19.036;2022-10-26T12:00:35;4.75;;;3.55;;
35324;SDS011;35135;47.510;19.036;2022-10-26T12:02:54;3.72;;;3.33;;
35324;SDS011;35135;47.510;19.036;2022-10-26T12:05:32;4.33;;;3.50;;
35324;SDS011;35135;47.510;19.036;2022-10-26T12:08:49;3.67;;;2.97;;
35324;SDS011;35135;47.510;19.036;2022-10-26T12:11:01;4.03;;;3.55;;
35324;SDS011;35135;47.510;19.036;2022-10-26T12:16:15;4.03;;;3.22;;
35324;SDS011;35135;47.510;19.036;2022-10-26T12:18:48;5.50;;;3.50;;
35324;SDS011;35135;47.510;19.036;2022-10-26T12:21:18;5.07;;;3.00;;
35324;SDS011;35135;47.510;19.036;2022-10-26T12:34:00;7.22;;;4.03;;
35324;SDS011;35135;47.510;19.036;2022-10-26T12:42:09;6.97;;;5.35;;
35324;SDS011;35135;47.510;19.036;2022-10-26T12:52:40;8.88;;;6.38;;
35324;SDS011;35135;47.510;19.036;2022-10-26T13:00:39;10.18;;;6.30;;
35324;SDS011;35135;47.510;19.036;2022-10-26T13:08:52;9.38;;;6.88;;
35324;SDS011;35135;47.510;19.036;2022-10-26T13:11:36;9.63;;;6.95;;
35324;SDS011;35135;47.510;19.036;2022-10-26T13:17:20;9.23;;;6.77;;
35324;SDS011;35135;47.510;19.036;2022-10-26T13:19:59;8.65;;;6.40;;
35324;SDS011;35135;47.510;19.036;2022-10-26T13:22:27;8.55;;;6.38;;
35324;SDS011;35135;47.510;19.036;2022-10-26T13:24:58;10.00;;;7.38;;
35324;SDS011;35135;47.510;19.036;2022-10-26T13:32:58;9.40;;;6.80;;
35324;SDS011;35135;47.510;19.036;2022-10-26T13:35:26;9.45;;;6.85;;
35324;SDS011;35135;47.510;19.036;2022-10-26T13:37:53;9.05;;;6.88;;
35324;SDS011;35135;47.510;19.036;2022-10-26T13:40:20;8.82;;;7.43;;
35324;SDS011;35135;47.510;19.036;2022-10-26T13:42:49;8.93;;;6.82;;
35324;SDS011;35135;47.510;19.036;2022-10-26T13:53:13;8.32;;;6.45;;
35324;SDS011;35135;47.510;19.036;2022-10-26T13:56:12;8.25;;;6.50;;
35324;SDS011;35135;47.510;19.036;2022-10-26T14:01:20;10.02;;;6.93;;
35324;SDS011;35135;47.510;19.036;2022-10-26T14:03:47;9.82;;;6.80;;
35324;SDS011;35135;47.510;19.036;2022-10-26T14:06:15;7.13;;;6.43;;
35324;SDS011;35135;47.510;19.036;2022-10-26T14:08:48;9.88;;;6.90;;
35324;SDS011;35135;47.510;19.036;2022-10-26T14:11:19;9.73;;;6.88;;
35324;SDS011;35135;47.510;19.036;2022-10-26T14:13:49;11.15;;;7.13;;
35324;SDS011;35135;47.510;19.036;2022-10-26T14:16:16;19.98;;;7.82;;
35324;SDS011;35135;47.510;19.036;2022-10-26T14:18:47;12.18;;;7.30;;
35324;SDS011;35135;47.510;19.036;2022-10-26T14:21:14;12.18;;;7.35;;
35324;SDS011;35135;47.510;19.036;2022-10-26T14:23:53;10.02;;;7.35;;
35324;SDS011;35135;47.510;19.036;2022-10-26T14:26:21;13.70;;;8.35;;
35324;SDS011;35135;47.510;19.036;2022-10-26T14:28:58;12.73;;;7.90;;
35324;SDS011;35135;47.510;19.036;2022-10-26T14:31:26;11.40;;;8.40;;
35324;SDS011;35135;47.510;19.036;2022-10-26T14:33:54;15.57;;;8.32;;
35324;SDS011;35135;47.510;19.036;2022-10-26T14:36:23;10.35;;;7.90;;
35324;SDS011;35135;47.510;19.036;2022-10-26T14:41:22;8.32;;;7.00;;
35324;SDS011;35135;47.510;19.036;2022-10-26T14:43:50;11.05;;;8.57;;
35324;SDS011;35135;47.510;19.036;2022-10-26T14:46:18;11.75;;;7.70;;
35324;SDS011;35135;47.510;19.036;2022-10-26T14:48:51;14.77;;;8.10;;
35324;SDS011;35135;47.510;19.036;2022-10-26T14:51:28;11.95;;;7.22;;
35324;SDS011;35135;47.510;19.036;2022-10-26T14:53:58;22.92;;;8.40;;
35324;SDS011;35135;47.510;19.036;2022-10-26T14:59:08;13.60;;;7.80;;
35324;SDS011;35135;47.510;19.036;2022-10-26T15:01:55;10.98;;;7.30;;
35324;SDS011;35135;47.510;19.036;2022-10-26T15:04:40;14.85;;;8.07;;
35324;SDS011;35135;47.510;19.036;2022-10-26T15:07:20;14.68;;;7.38;;
35324;SDS011;35135;47.510;19.036;2022-10-26T15:09:50;11.45;;;6.85;;
35324;SDS011;35135;47.510;19.036;2022-10-26T15:17:53;14.18;;;7.65;;
35324;SDS011;35135;47.510;19.036;2022-10-26T15:20:21;11.80;;;7.35;;
35324;SDS011;35135;47.510;19.036;2022-10-26T15:22:49;12.95;;;7.28;;
35324;SDS011;35135;47.510;19.036;2022-10-26T15:25:19;14.70;;;7.20;;
35324;SDS011;35135;47.510;19.036;2022-10-26T15:27:47;13.25;;;7.35;;
35324;SDS011;35135;47.510;19.036;2022-10-26T15:32:47;15.38;;;6.95;;
35324;SDS011;35135;47.510;19.036;2022-10-26T15:35:15;14.65;;;6.80;;
35324;SDS011;35135;47.510;19.036;2022-10-26T15:37:46;13.77;;;7.28;;
35324;SDS011;35135;47.510;19.036;2022-10-26T15:40:12;12.00;;;7.32;;
35324;SDS011;35135;47.510;19.036;2022-10-26T15:42:39;10.82;;;6.82;;
35324;SDS011;35135;47.510;19.036;2022-10-26T15:45:13;10.35;;;6.72;;
35324;SDS011;35135;47.510;19.036;2022-10-26T15:47:41;12.15;;;7.65;;
35324;SDS011;35135;47.510;19.036;2022-10-26T15:50:13;11.43;;;7.38;;
35324;SDS011;35135;47.510;19.036;2022-10-26T15:52:39;9.98;;;7.05;;
35324;SDS011;35135;47.510;19.036;2022-10-26T15:55:05;12.85;;;7.10;;
35324;SDS011;35135;47.510;19.036;2022-10-26T15:57:31;9.70;;;6.57;;
35324;SDS011;35135;47.510;19.036;2022-10-26T15:59:57;10.98;;;7.03;;
35324;SDS011;35135;47.510;19.036;2022-10-26T16:02:22;10.38;;;6.18;;
35324;SDS011;35135;47.510;19.036;2022-10-26T16:04:48;13.75;;;6.43;;
35324;SDS011;35135;47.510;19.036;2022-10-26T16:07:13;10.80;;;6.70;;
35324;SDS011;35135;47.510;19.036;2022-10-26T16:09:40;9.70;;;6.63;;
35324;SDS011;35135;47.510;19.036;2022-10-26T16:12:10;10.18;;;6.35;;
35324;SDS011;35135;47.510;19.036;2022-10-26T16:14:37;8.82;;;6.53;;
35324;SDS011;35135;47.510;19.036;2022-10-26T16:17:04;10.90;;;7.18;;
35324;SDS011;35135;47.510;19.036;2022-10-26T16:19:31;11.75;;;7.53;;
35324;SDS011;35135;47.510;19.036;2022-10-26T16:21:57;15.82;;;8.25;;
35324;SDS011;35135;47.510;19.036;2022-10-26T16:24:23;12.35;;;7.72;;
35324;SDS011;35135;47.510;19.036;2022-10-26T16:26:50;14.70;;;7.43;;
35324;SDS011;35135;47.510;19.036;2022-10-26T16:29:16;13.48;;;6.78;;
35324;SDS011;35135;47.510;19.036;2022-10-26T16:31:41;11.82;;;7.03;;
35324;SDS011;35135;47.510;19.036;2022-10-26T16:34:07;9.27;;;6.57;;
35324;SDS011;35135;47.510;19.036;2022-10-26T16:36:33;11.48;;;7.03;;
35324;SDS011;35135;47.510;19.036;2022-10-26T16:38:58;10.02;;;7.03;;
35324;SDS011;35135;47.510;19.036;2022-10-26T16:41:24;9.68;;;7.00;;
35324;SDS011;35135;47.510;19.036;2022-10-26T16:43:50;9.18;;;6.32;;
35324;SDS011;35135;47.510;19.036;2022-10-26T16:46:16;9.48;;;7.18;;
35324;SDS011;35135;47.510;19.036;2022-10-26T16:48:44;9.15;;;6.88;;
35324;SDS011;35135;47.510;19.036;2022-10-26T16:51:12;8.55;;;6.82;;
35324;SDS011;35135;47.510;19.036;2022-10-26T16:53:42;10.35;;;6.80;;
35324;SDS011;35135;47.510;19.036;2022-10-26T16:56:11;11.32;;;6.68;;
35324;SDS011;35135;47.510;19.036;2022-10-26T16:58:39;9.40;;;6.50;;
35324;SDS011;35135;47.510;19.036;2022-10-26T17:01:06;7.90;;;6.80;;
35324;SDS011;35135;47.510;19.036;2022-10-26T17:03:32;8.52;;;6.25;;
35324;SDS011;35135;47.510;19.036;2022-10-26T17:06:02;8.38;;;6.32;;
35324;SDS011;35135;47.510;19.036;2022-10-26T17:08:29;8.85;;;6.35;;
35324;SDS011;35135;47.510;19.036;2022-10-26T17:11:07;9.35;;;6.25;;
35324;SDS011;35135;47.510;19.036;2022-10-26T17:13:35;8.45;;;6.30;;
35324;SDS011;35135;47.510;19.036;2022-10-26T17:16:05;9.73;;;6.60;;
35324;SDS011;35135;47.510;19.036;2022-10-26T17:18:39;8.88;;;6.43;;
35324;SDS011;35135;47.510;19.036;2022-10-26T17:21:06;10.50;;;6.50;;
35324;SDS011;35135;47.510;19.036;2022-10-26T17:23:32;8.32;;;6.18;;
35324;SDS011;35135;47.510;19.036;2022-10-26T17:26:02;10.85;;;6.40;;
35324;SDS011;35135;47.510;19.036;2022-10-26T17:28:29;7.50;;;6.00;;
35324;SDS011;35135;47.510;19.036;2022-10-26T17:31:05;7.85;;;5.35;;
35324;SDS011;35135;47.510;19.036;2022-10-26T17:33:36;8.80;;;5.68;;
35324;SDS011;35135;47.510;19.036;2022-10-26T17:36:04;7.85;;;5.80;;
35324;SDS011;35135;47.510;19.036;2022-10-26T17:38:35;9.25;;;5.78;;
35324;SDS011;35135;47.510;19.036;2022-10-26T17:41:03;8.70;;;6.10;;
35324;SDS011;35135;47.510;19.036;2022-10-26T17:43:37;9.02;;;6.07;;